Terminal Aerodrome Forecast
Issued by NWS Twin Cities, MN

Home | Current Version | Previous Version | Text Only | Print | Product List | Glossary On
Versions: 1 2 3 4 5 6 7 8 9 10 11 12 13 14 15
148
FTUS43 KMPX 132345
TAFSTC
TAF
KSTC 132345Z 1400/1424 14010KT P6SM OVC090
     FM140800 14012KT 6SM -SN OVC025
      TEMPO 1409/1412 2SM -SN OVC015
     FM141400 15015G20KT P6SM -SN OVC015=

USA.gov is the U.S. government's official web portal to all federal, state and local government web resources and services.